RKSS/GMP METAR and TAF weather

Enter ICAO airport designator
Station Type Date Time Source
RKSS METAR 2021/07/28 04:00 UTC NOAA

RKSS 280400Z 34007KT 300V020 9999 FEW030 SCT050 35/23 Q1002 NOSIG


Station Type Date Time Source
RKSS Decoded METAR 2021/07/28 04:00 UTC NOAA

Seoul / Kimp'O International Airport, Korea, South (RKSS) 37-33N 126-48E 18M
Jul 28, 2021 - 12:00 AM EDT / 2021.07.28 0400 UTC
Wind: from the NNW (340 degrees) at 8 MPH (7 KT) (direction variable):0
Visibility: greater than 7 mile(s):0
Sky conditions: partly cloudy
Temperature: 95 F (35 C)
Heat index: 104.5 F (40.3 C):1
Dew Point: 73 F (23 C)
Relative Humidity: 49%
Pressure (altimeter): 29.59 in. Hg (1002 hPa)
ob: RKSS 280400Z 34007KT 300V020 9999 FEW030 SCT050 35/23 Q1002 NOSIG
cycle: 4

Station Type Date Time Source
RKSS TAF 2021/07/27 18:07 UTC NOAA

TAF RKSS 271700Z 2718/2824 32005KT 9999 FEW035 TN26/2720Z TX35/2806Z TN25/2820Z
BECMG 2720/2721 12005KT
BECMG 2802/2803 29006KT
BECMG 2813/2814 06005KT 6000
BECMG 2816/2817 16005KT 4000 BR
BECMG 2821/2822 6000 NSW

Example: see airport list